sensor_id;sensor_type;location;lat;lon;timestamp;temperature;humidity
2687;DHT22;1353;51.386;7.028;2022-09-09T00:01:43;13.30;99.90
2687;DHT22;1353;51.386;7.028;2022-09-09T00:04:17;13.30;99.90
2687;DHT22;1353;51.386;7.028;2022-09-09T00:06:54;13.20;99.90
2687;DHT22;1353;51.386;7.028;2022-09-09T00:09:24;13.20;99.90
2687;DHT22;1353;51.386;7.028;2022-09-09T00:11:57;13.30;99.90
2687;DHT22;1353;51.386;7.028;2022-09-09T00:14:34;13.30;99.90
2687;DHT22;1353;51.386;7.028;2022-09-09T00:17:08;13.20;99.90
2687;DHT22;1353;51.386;7.028;2022-09-09T00:19:40;13.20;99.90
2687;DHT22;1353;51.386;7.028;2022-09-09T00:22:16;13.20;99.90
2687;DHT22;1353;51.386;7.028;2022-09-09T00:24:45;13.20;99.90
2687;DHT22;1353;51.386;7.028;2022-09-09T00:27:19;13.10;99.90
2687;DHT22;1353;51.386;7.028;2022-09-09T00:29:52;13.00;99.90
2687;DHT22;1353;51.386;7.028;2022-09-09T00:32:22;13.10;99.90
2687;DHT22;1353;51.386;7.028;2022-09-09T00:34:53;13.10;99.90
2687;DHT22;1353;51.386;7.028;2022-09-09T00:37:22;13.20;99.90
2687;DHT22;1353;51.386;7.028;2022-09-09T00:39:53;13.20;99.90
2687;DHT22;1353;51.386;7.028;2022-09-09T00:42:25;13.10;99.90
2687;DHT22;1353;51.386;7.028;2022-09-09T00:44:58;13.10;99.90
2687;DHT22;1353;51.386;7.028;2022-09-09T00:47:51;13.00;99.90
2687;DHT22;1353;51.386;7.028;2022-09-09T00:50:45;13.00;99.90
2687;DHT22;1353;51.386;7.028;2022-09-09T00:53:34;13.00;99.90
2687;DHT22;1353;51.386;7.028;2022-09-09T00:56:11;13.00;99.90
2687;DHT22;1353;51.386;7.028;2022-09-09T00:58:39;13.00;99.90
2687;DHT22;1353;51.386;7.028;2022-09-09T01:01:10;13.10;99.90
2687;DHT22;1353;51.386;7.028;2022-09-09T01:03:44;13.00;99.90
2687;DHT22;1353;51.386;7.028;2022-09-09T01:06:16;13.10;99.90
2687;DHT22;1353;51.386;7.028;2022-09-09T01:09:13;13.20;99.90
2687;DHT22;1353;51.386;7.028;2022-09-09T01:11:51;13.20;99.90
2687;DHT22;1353;51.386;7.028;2022-09-09T01:14:29;13.30;99.90
2687;DHT22;1353;51.386;7.028;2022-09-09T01:17:03;13.40;99.90
2687;DHT22;1353;51.386;7.028;2022-09-09T01:19:40;13.40;99.90
2687;DHT22;1353;51.386;7.028;2022-09-09T01:22:18;13.40;99.90
2687;DHT22;1353;51.386;7.028;2022-09-09T01:25:06;13.50;99.90
2687;DHT22;1353;51.386;7.028;2022-09-09T01:27:40;13.60;99.90
2687;DHT22;1353;51.386;7.028;2022-09-09T01:30:10;13.70;99.90
2687;DHT22;1353;51.386;7.028;2022-09-09T01:32:41;13.70;99.90
2687;DHT22;1353;51.386;7.028;2022-09-09T01:35:12;13.70;99.90
2687;DHT22;1353;51.386;7.028;2022-09-09T01:37:39;13.80;99.90
2687;DHT22;1353;51.386;7.028;2022-09-09T01:40:07;13.80;99.90
2687;DHT22;1353;51.386;7.028;2022-09-09T01:42:34;13.80;99.90
2687;DHT22;1353;51.386;7.028;2022-09-09T01:45:02;13.80;99.90
2687;DHT22;1353;51.386;7.028;2022-09-09T01:47:30;13.60;99.90
2687;DHT22;1353;51.386;7.028;2022-09-09T01:49:56;13.60;99.90
2687;DHT22;1353;51.386;7.028;2022-09-09T01:52:23;13.50;99.90
2687;DHT22;1353;51.386;7.028;2022-09-09T01:54:50;13.40;99.90
2687;DHT22;1353;51.386;7.028;2022-09-09T01:57:20;13.40;99.90
2687;DHT22;1353;51.386;7.028;2022-09-09T01:59:56;13.30;99.90
2687;DHT22;1353;51.386;7.028;2022-09-09T02:02:30;13.30;99.90
2687;DHT22;1353;51.386;7.028;2022-09-09T02:05:06;13.20;99.90
2687;DHT22;1353;51.386;7.028;2022-09-09T02:07:39;13.20;99.90
2687;DHT22;1353;51.386;7.028;2022-09-09T02:10:11;13.20;99.90
2687;DHT22;1353;51.386;7.028;2022-09-09T02:12:42;13.20;99.90
2687;DHT22;1353;51.386;7.028;2022-09-09T02:15:16;13.30;99.90
2687;DHT22;1353;51.386;7.028;2022-09-09T02:17:46;13.20;99.90
2687;DHT22;1353;51.386;7.028;2022-09-09T02:20:19;13.30;99.90
2687;DHT22;1353;51.386;7.028;2022-09-09T02:22:49;13.40;99.90
2687;DHT22;1353;51.386;7.028;2022-09-09T02:25:19;13.60;99.90
2687;DHT22;1353;51.386;7.028;2022-09-09T02:27:49;13.60;99.90
2687;DHT22;1353;51.386;7.028;2022-09-09T02:30:17;13.60;99.90
2687;DHT22;1353;51.386;7.028;2022-09-09T02:32:48;13.60;99.90
2687;DHT22;1353;51.386;7.028;2022-09-09T02:35:19;13.60;99.90
2687;DHT22;1353;51.386;7.028;2022-09-09T02:37:47;13.80;99.90
2687;DHT22;1353;51.386;7.028;2022-09-09T02:40:15;13.70;99.90
2687;DHT22;1353;51.386;7.028;2022-09-09T02:42:43;13.70;99.90
2687;DHT22;1353;51.386;7.028;2022-09-09T02:45:12;13.80;99.90
2687;DHT22;1353;51.386;7.028;2022-09-09T02:47:46;13.90;99.90
2687;DHT22;1353;51.386;7.028;2022-09-09T02:50:18;13.80;99.90
2687;DHT22;1353;51.386;7.028;2022-09-09T02:52:54;13.90;99.90
2687;DHT22;1353;51.386;7.028;2022-09-09T02:55:26;14.00;99.90
2687;DHT22;1353;51.386;7.028;2022-09-09T02:57:55;13.90;99.90
2687;DHT22;1353;51.386;7.028;2022-09-09T03:00:24;13.90;99.90
2687;DHT22;1353;51.386;7.028;2022-09-09T03:02:52;13.90;99.90
2687;DHT22;1353;51.386;7.028;2022-09-09T03:05:20;13.90;99.90
2687;DHT22;1353;51.386;7.028;2022-09-09T03:07:47;13.80;99.90
2687;DHT22;1353;51.386;7.028;2022-09-09T03:10:15;13.80;99.90
2687;DHT22;1353;51.386;7.028;2022-09-09T03:12:42;13.70;99.90
2687;DHT22;1353;51.386;7.028;2022-09-09T03:15:09;13.70;99.90
2687;DHT22;1353;51.386;7.028;2022-09-09T03:17:36;13.60;99.90
2687;DHT22;1353;51.386;7.028;2022-09-09T03:20:04;13.60;99.90
2687;DHT22;1353;51.386;7.028;2022-09-09T03:22:32;13.60;99.90
2687;DHT22;1353;51.386;7.028;2022-09-09T03:24:59;13.60;99.90
2687;DHT22;1353;51.386;7.028;2022-09-09T03:27:28;13.40;99.90
2687;DHT22;1353;51.386;7.028;2022-09-09T03:29:55;13.40;99.90
2687;DHT22;1353;51.386;7.028;2022-09-09T03:32:21;13.50;99.90
2687;DHT22;1353;51.386;7.028;2022-09-09T03:34:52;13.40;99.90
2687;DHT22;1353;51.386;7.028;2022-09-09T03:37:20;13.50;99.90
2687;DHT22;1353;51.386;7.028;2022-09-09T03:39:48;13.50;99.90
2687;DHT22;1353;51.386;7.028;2022-09-09T03:42:15;13.50;99.90
2687;DHT22;1353;51.386;7.028;2022-09-09T03:44:44;13.50;99.90
2687;DHT22;1353;51.386;7.028;2022-09-09T03:47:15;13.60;99.90
2687;DHT22;1353;51.386;7.028;2022-09-09T03:49:42;13.60;99.90
2687;DHT22;1353;51.386;7.028;2022-09-09T03:52:09;13.70;99.90
2687;DHT22;1353;51.386;7.028;2022-09-09T03:54:37;13.60;99.90
2687;DHT22;1353;51.386;7.028;2022-09-09T03:57:04;13.70;99.90
2687;DHT22;1353;51.386;7.028;2022-09-09T03:59:31;13.70;99.90
2687;DHT22;1353;51.386;7.028;2022-09-09T04:01:58;13.70;99.90
2687;DHT22;1353;51.386;7.028;2022-09-09T04:04:25;13.80;99.90
2687;DHT22;1353;51.386;7.028;2022-09-09T04:06:52;13.80;99.90
2687;DHT22;1353;51.386;7.028;2022-09-09T04:09:19;13.90;99.90
2687;DHT22;1353;51.386;7.028;2022-09-09T04:11:47;13.90;94.60
2687;DHT22;1353;51.386;7.028;2022-09-09T04:14:15;14.00;1.00
2687;DHT22;1353;51.386;7.028;2022-09-09T04:16:41;13.90;1.00
2687;DHT22;1353;51.386;7.028;2022-09-09T04:19:10;13.90;1.00
2687;DHT22;1353;51.386;7.028;2022-09-09T04:21:38;13.90;99.90
2687;DHT22;1353;51.386;7.028;2022-09-09T04:24:06;14.00;99.90
2687;DHT22;1353;51.386;7.028;2022-09-09T04:26:33;13.90;1.00
2687;DHT22;1353;51.386;7.028;2022-09-09T04:29:02;13.90;1.00
2687;DHT22;1353;51.386;7.028;2022-09-09T04:31:29;13.70;99.90
2687;DHT22;1353;51.386;7.028;2022-09-09T04:33:56;13.60;1.00
2687;DHT22;1353;51.386;7.028;2022-09-09T04:36:23;13.60;23.80
2687;DHT22;1353;51.386;7.028;2022-09-09T04:38:49;13.80;1.00
2687;DHT22;1353;51.386;7.028;2022-09-09T04:41:16;13.70;99.90
2687;DHT22;1353;51.386;7.028;2022-09-09T04:43:43;13.90;99.90
2687;DHT22;1353;51.386;7.028;2022-09-09T04:46:11;14.00;99.90
2687;DHT22;1353;51.386;7.028;2022-09-09T04:48:38;14.00;1.00
2687;DHT22;1353;51.386;7.028;2022-09-09T04:51:08;16.10;99.90
2687;DHT22;1353;51.386;7.028;2022-09-09T04:53:35;17.60;99.90
2687;DHT22;1353;51.386;7.028;2022-09-09T04:56:04;17.60;99.90
2687;DHT22;1353;51.386;7.028;2022-09-09T04:58:31;17.70;99.90
2687;DHT22;1353;51.386;7.028;2022-09-09T05:01:04;18.10;99.90
2687;DHT22;1353;51.386;7.028;2022-09-09T05:03:32;18.40;99.90
2687;DHT22;1353;51.386;7.028;2022-09-09T05:06:03;18.60;99.90
2687;DHT22;1353;51.386;7.028;2022-09-09T05:08:30;18.40;99.90
2687;DHT22;1353;51.386;7.028;2022-09-09T05:10:57;18.60;99.90
2687;DHT22;1353;51.386;7.028;2022-09-09T05:13:25;17.90;99.90
2687;DHT22;1353;51.386;7.028;2022-09-09T05:15:52;18.20;99.90
2687;DHT22;1353;51.386;7.028;2022-09-09T05:18:19;18.70;99.90
2687;DHT22;1353;51.386;7.028;2022-09-09T05:20:49;18.60;99.00
2687;DHT22;1353;51.386;7.028;2022-09-09T05:23:16;18.50;93.70
2687;DHT22;1353;51.386;7.028;2022-09-09T05:25:43;18.20;89.60
2687;DHT22;1353;51.386;7.028;2022-09-09T05:28:12;18.50;90.10
2687;DHT22;1353;51.386;7.028;2022-09-09T05:30:38;18.90;90.30
2687;DHT22;1353;51.386;7.028;2022-09-09T05:33:05;19.50;89.90
2687;DHT22;1353;51.386;7.028;2022-09-09T05:35:32;19.60;76.60
2687;DHT22;1353;51.386;7.028;2022-09-09T05:38:01;19.50;65.80
2687;DHT22;1353;51.386;7.028;2022-09-09T05:40:27;19.90;63.20
2687;DHT22;1353;51.386;7.028;2022-09-09T05:42:54;19.50;55.40
2687;DHT22;1353;51.386;7.028;2022-09-09T05:45:21;19.80;54.80
2687;DHT22;1353;51.386;7.028;2022-09-09T05:47:51;19.90;50.50
2687;DHT22;1353;51.386;7.028;2022-09-09T05:50:19;19.90;45.30
2687;DHT22;1353;51.386;7.028;2022-09-09T05:52:46;19.60;39.70
2687;DHT22;1353;51.386;7.028;2022-09-09T05:55:15;19.30;33.40
2687;DHT22;1353;51.386;7.028;2022-09-09T05:57:48;19.00;30.50
2687;DHT22;1353;51.386;7.028;2022-09-09T06:00:15;19.00;28.30
2687;DHT22;1353;51.386;7.028;2022-09-09T06:02:42;19.10;27.90
2687;DHT22;1353;51.386;7.028;2022-09-09T06:05:09;19.10;25.60
2687;DHT22;1353;51.386;7.028;2022-09-09T06:07:36;18.10;18.30
2687;DHT22;1353;51.386;7.028;2022-09-09T06:10:03;18.00;19.30
2687;DHT22;1353;51.386;7.028;2022-09-09T06:12:32;18.60;23.80
2687;DHT22;1353;51.386;7.028;2022-09-09T06:14:58;18.80;23.00
2687;DHT22;1353;51.386;7.028;2022-09-09T06:17:25;18.50;20.70
2687;DHT22;1353;51.386;7.028;2022-09-09T06:19:52;19.20;23.50
2687;DHT22;1353;51.386;7.028;2022-09-09T06:22:19;19.10;21.80
2687;DHT22;1353;51.386;7.028;2022-09-09T06:24:46;18.70;17.40
2687;DHT22;1353;51.386;7.028;2022-09-09T06:27:12;19.20;19.90
2687;DHT22;1353;51.386;7.028;2022-09-09T06:29:41;18.60;17.20
2687;DHT22;1353;51.386;7.028;2022-09-09T06:32:07;18.50;15.90
2687;DHT22;1353;51.386;7.028;2022-09-09T06:34:35;19.10;19.00
2687;DHT22;1353;51.386;7.028;2022-09-09T06:37:02;18.00;13.00
2687;DHT22;1353;51.386;7.028;2022-09-09T06:39:30;18.40;14.60
2687;DHT22;1353;51.386;7.028;2022-09-09T06:41:56;17.50;11.60
2687;DHT22;1353;51.386;7.028;2022-09-09T06:44:24;17.90;15.00
2687;DHT22;1353;51.386;7.028;2022-09-09T06:46:53;18.50;20.00
2687;DHT22;1353;51.386;7.028;2022-09-09T06:49:20;18.10;15.20
2687;DHT22;1353;51.386;7.028;2022-09-09T06:51:47;17.70;13.20
2687;DHT22;1353;51.386;7.028;2022-09-09T06:54:14;17.90;15.60
2687;DHT22;1353;51.386;7.028;2022-09-09T06:56:42;18.10;16.80
2687;DHT22;1353;51.386;7.028;2022-09-09T06:59:11;17.70;14.80
2687;DHT22;1353;51.386;7.028;2022-09-09T07:01:39;17.70;18.00
2687;DHT22;1353;51.386;7.028;2022-09-09T07:04:08;17.90;19.30
2687;DHT22;1353;51.386;7.028;2022-09-09T07:06:37;18.80;21.70
2687;DHT22;1353;51.386;7.028;2022-09-09T07:09:07;19.50;24.10
2687;DHT22;1353;51.386;7.028;2022-09-09T07:11:36;20.10;21.40
2687;DHT22;1353;51.386;7.028;2022-09-09T07:14:04;20.10;21.00
2687;DHT22;1353;51.386;7.028;2022-09-09T07:16:31;19.80;17.70
2687;DHT22;1353;51.386;7.028;2022-09-09T07:18:59;19.60;15.70
2687;DHT22;1353;51.386;7.028;2022-09-09T07:21:28;19.60;14.90
2687;DHT22;1353;51.386;7.028;2022-09-09T07:23:55;20.90;24.20
2687;DHT22;1353;51.386;7.028;2022-09-09T07:26:25;20.90;18.10
2687;DHT22;1353;51.386;7.028;2022-09-09T07:28:52;21.30;19.60
2687;DHT22;1353;51.386;7.028;2022-09-09T07:31:22;21.90;22.00
2687;DHT22;1353;51.386;7.028;2022-09-09T07:33:50;22.60;23.80
2687;DHT22;1353;51.386;7.028;2022-09-09T07:36:19;21.70;15.20
2687;DHT22;1353;51.386;7.028;2022-09-09T07:38:50;21.70;12.40
2687;DHT22;1353;51.386;7.028;2022-09-09T07:41:19;21.90;12.40
2687;DHT22;1353;51.386;7.028;2022-09-09T07:43:48;22.40;15.70
2687;DHT22;1353;51.386;7.028;2022-09-09T07:46:18;21.90;9.20
2687;DHT22;1353;51.386;7.028;2022-09-09T07:48:46;21.10;2.90
2687;DHT22;1353;51.386;7.028;2022-09-09T07:51:19;21.50;6.40
2687;DHT22;1353;51.386;7.028;2022-09-09T07:53:52;21.80;7.20
2687;DHT22;1353;51.386;7.028;2022-09-09T07:56:19;20.40;1.00
2687;DHT22;1353;51.386;7.028;2022-09-09T07:58:50;19.80;1.00
2687;DHT22;1353;51.386;7.028;2022-09-09T08:01:18;19.60;1.00
2687;DHT22;1353;51.386;7.028;2022-09-09T08:03:46;20.10;1.00
2687;DHT22;1353;51.386;7.028;2022-09-09T08:06:14;20.30;1.00
2687;DHT22;1353;51.386;7.028;2022-09-09T08:08:40;20.90;1.00
2687;DHT22;1353;51.386;7.028;2022-09-09T08:11:13;20.80;1.00
2687;DHT22;1353;51.386;7.028;2022-09-09T08:13:40;21.60;3.50
2687;DHT22;1353;51.386;7.028;2022-09-09T08:16:09;22.30;8.50
2687;DHT22;1353;51.386;7.028;2022-09-09T08:18:36;22.20;16.10
2687;DHT22;1353;51.386;7.028;2022-09-09T08:21:08;21.60;1.00
2687;DHT22;1353;51.386;7.028;2022-09-09T08:23:37;21.40;1.00
2687;DHT22;1353;51.386;7.028;2022-09-09T08:26:12;22.80;8.20
2687;DHT22;1353;51.386;7.028;2022-09-09T08:28:40;23.60;12.70
2687;DHT22;1353;51.386;7.028;2022-09-09T08:31:10;22.20;1.00
2687;DHT22;1353;51.386;7.028;2022-09-09T08:33:37;23.20;7.20
2687;DHT22;1353;51.386;7.028;2022-09-09T08:36:05;23.20;5.10
2687;DHT22;1353;51.386;7.028;2022-09-09T08:38:32;23.70;9.50
2687;DHT22;1353;51.386;7.028;2022-09-09T08:41:18;22.90;1.00
2687;DHT22;1353;51.386;7.028;2022-09-09T08:43:51;22.50;1.00
2687;DHT22;1353;51.386;7.028;2022-09-09T08:46:31;21.80;1.00
2687;DHT22;1353;51.386;7.028;2022-09-09T08:49:03;21.40;1.00
2687;DHT22;1353;51.386;7.028;2022-09-09T08:51:32;21.20;1.00
2687;DHT22;1353;51.386;7.028;2022-09-09T08:54:02;21.90;1.00
2687;DHT22;1353;51.386;7.028;2022-09-09T08:56:31;22.40;1.00
2687;DHT22;1353;51.386;7.028;2022-09-09T08:59:00;23.10;1.00
2687;DHT22;1353;51.386;7.028;2022-09-09T09:01:42;22.40;1.00
2687;DHT22;1353;51.386;7.028;2022-09-09T09:04:28;21.30;1.00
2687;DHT22;1353;51.386;7.028;2022-09-09T09:07:05;21.10;1.00
2687;DHT22;1353;51.386;7.028;2022-09-09T09:09:40;20.90;1.00
2687;DHT22;1353;51.386;7.028;2022-09-09T09:12:16;20.90;1.00
2687;DHT22;1353;51.386;7.028;2022-09-09T09:14:46;20.80;1.00
2687;DHT22;1353;51.386;7.028;2022-09-09T09:17:15;21.20;1.00
2687;DHT22;1353;51.386;7.028;2022-09-09T09:19:43;22.20;1.00
2687;DHT22;1353;51.386;7.028;2022-09-09T09:22:16;22.60;1.00
2687;DHT22;1353;51.386;7.028;2022-09-09T09:24:50;22.40;1.00
2687;DHT22;1353;51.386;7.028;2022-09-09T09:27:25;22.40;1.00
2687;DHT22;1353;51.386;7.028;2022-09-09T09:29:57;22.00;1.00
2687;DHT22;1353;51.386;7.028;2022-09-09T09:32:24;22.10;1.00
2687;DHT22;1353;51.386;7.028;2022-09-09T09:34:55;22.50;1.00
2687;DHT22;1353;51.386;7.028;2022-09-09T09:37:27;22.90;1.00
2687;DHT22;1353;51.386;7.028;2022-09-09T09:39:54;22.70;1.00
2687;DHT22;1353;51.386;7.028;2022-09-09T09:42:23;21.60;1.00
2687;DHT22;1353;51.386;7.028;2022-09-09T09:44:51;20.90;1.00
2687;DHT22;1353;51.386;7.028;2022-09-09T09:47:19;20.60;1.00
2687;DHT22;1353;51.386;7.028;2022-09-09T09:49:53;20.70;1.00
2687;DHT22;1353;51.386;7.028;2022-09-09T09:52:22;20.40;1.00
2687;DHT22;1353;51.386;7.028;2022-09-09T09:54:50;20.70;1.00
2687;DHT22;1353;51.386;7.028;2022-09-09T09:57:18;20.30;1.00
2687;DHT22;1353;51.386;7.028;2022-09-09T10:00:00;20.40;1.00
2687;DHT22;1353;51.386;7.028;2022-09-09T10:02:37;20.10;1.00
2687;DHT22;1353;51.386;7.028;2022-09-09T10:05:12;19.70;1.00
2687;DHT22;1353;51.386;7.028;2022-09-09T10:07:39;19.90;1.00
2687;DHT22;1353;51.386;7.028;2022-09-09T10:10:12;20.30;1.00
2687;DHT22;1353;51.386;7.028;2022-09-09T10:12:48;21.60;1.00
2687;DHT22;1353;51.386;7.028;2022-09-09T10:15:32;23.10;1.00
2687;DHT22;1353;51.386;7.028;2022-09-09T10:18:13;24.50;1.00
2687;DHT22;1353;51.386;7.028;2022-09-09T10:20:45;25.60;1.00
2687;DHT22;1353;51.386;7.028;2022-09-09T10:23:27;25.20;1.00
2687;DHT22;1353;51.386;7.028;2022-09-09T10:26:16;24.00;1.00
2687;DHT22;1353;51.386;7.028;2022-09-09T10:28:58;23.50;1.00
2687;DHT22;1353;51.386;7.028;2022-09-09T10:31:34;23.00;1.00
2687;DHT22;1353;51.386;7.028;2022-09-09T10:34:14;21.70;1.00
2687;DHT22;1353;51.386;7.028;2022-09-09T10:36:47;22.40;1.00
2687;DHT22;1353;51.386;7.028;2022-09-09T10:39:31;22.60;1.00
2687;DHT22;1353;51.386;7.028;2022-09-09T10:42:05;22.40;1.00
2687;DHT22;1353;51.386;7.028;2022-09-09T10:44:45;22.00;1.00
2687;DHT22;1353;51.386;7.028;2022-09-09T10:47:29;22.10;1.00
2687;DHT22;1353;51.386;7.028;2022-09-09T10:50:13;21.50;1.00
2687;DHT22;1353;51.386;7.028;2022-09-09T10:52:50;21.60;1.00
2687;DHT22;1353;51.386;7.028;2022-09-09T10:55:20;21.40;1.00
2687;DHT22;1353;51.386;7.028;2022-09-09T10:57:52;21.20;1.00
2687;DHT22;1353;51.386;7.028;2022-09-09T11:00:21;21.60;1.00
2687;DHT22;1353;51.386;7.028;2022-09-09T11:02:54;21.80;1.00
2687;DHT22;1353;51.386;7.028;2022-09-09T11:05:28;22.00;1.00
2687;DHT22;1353;51.386;7.028;2022-09-09T11:07:59;21.30;1.00
2687;DHT22;1353;51.386;7.028;2022-09-09T11:10:34;21.00;1.00
2687;DHT22;1353;51.386;7.028;2022-09-09T11:13:05;21.10;1.00
2687;DHT22;1353;51.386;7.028;2022-09-09T11:15:39;21.90;1.00
2687;DHT22;1353;51.386;7.028;2022-09-09T11:18:13;21.70;1.00
2687;DHT22;1353;51.386;7.028;2022-09-09T11:20:40;22.70;1.00
2687;DHT22;1353;51.386;7.028;2022-09-09T11:23:12;23.20;1.00
2687;DHT22;1353;51.386;7.028;2022-09-09T11:25:41;23.20;1.00
2687;DHT22;1353;51.386;7.028;2022-09-09T11:28:25;22.00;1.00
2687;DHT22;1353;51.386;7.028;2022-09-09T11:31:03;22.40;1.00
2687;DHT22;1353;51.386;7.028;2022-09-09T11:33:55;21.70;1.00
2687;DHT22;1353;51.386;7.028;2022-09-09T11:39:44;21.60;1.00
2687;DHT22;1353;51.386;7.028;2022-09-09T11:42:17;21.10;1.00
2687;DHT22;1353;51.386;7.028;2022-09-09T11:44:45;21.20;1.00
2687;DHT22;1353;51.386;7.028;2022-09-09T11:47:23;21.20;1.00
2687;DHT22;1353;51.386;7.028;2022-09-09T11:50:08;21.20;1.00
2687;DHT22;1353;51.386;7.028;2022-09-09T11:52:37;20.90;1.00
2687;DHT22;1353;51.386;7.028;2022-09-09T11:55:09;20.60;1.00
2687;DHT22;1353;51.386;7.028;2022-09-09T11:57:38;19.90;1.00
2687;DHT22;1353;51.386;7.028;2022-09-09T12:00:06;19.90;1.00
2687;DHT22;1353;51.386;7.028;2022-09-09T12:02:33;20.00;1.00
2687;DHT22;1353;51.386;7.028;2022-09-09T12:05:07;20.50;1.00
2687;DHT22;1353;51.386;7.028;2022-09-09T12:07:37;20.50;1.00
2687;DHT22;1353;51.386;7.028;2022-09-09T12:10:20;21.50;1.00
2687;DHT22;1353;51.386;7.028;2022-09-09T12:12:48;21.90;1.00
2687;DHT22;1353;51.386;7.028;2022-09-09T12:15:25;22.30;1.00
2687;DHT22;1353;51.386;7.028;2022-09-09T12:17:55;22.10;1.00
2687;DHT22;1353;51.386;7.028;2022-09-09T12:20:31;22.70;1.00
2687;DHT22;1353;51.386;7.028;2022-09-09T12:23:18;21.30;1.00
2687;DHT22;1353;51.386;7.028;2022-09-09T12:28:47;21.20;1.00
2687;DHT22;1353;51.386;7.028;2022-09-09T12:31:21;21.30;1.00
2687;DHT22;1353;51.386;7.028;2022-09-09T12:33:50;20.60;1.00
2687;DHT22;1353;51.386;7.028;2022-09-09T12:36:23;20.10;1.00
2687;DHT22;1353;51.386;7.028;2022-09-09T12:38:51;19.70;1.00
2687;DHT22;1353;51.386;7.028;2022-09-09T12:41:21;20.10;1.00
2687;DHT22;1353;51.386;7.028;2022-09-09T12:43:48;19.40;1.00
2687;DHT22;1353;51.386;7.028;2022-09-09T12:46:22;20.00;1.00
2687;DHT22;1353;51.386;7.028;2022-09-09T12:48:52;20.10;1.00
2687;DHT22;1353;51.386;7.028;2022-09-09T12:51:26;20.20;1.00
2687;DHT22;1353;51.386;7.028;2022-09-09T12:53:53;19.40;1.00
2687;DHT22;1353;51.386;7.028;2022-09-09T12:56:22;19.60;1.00
2687;DHT22;1353;51.386;7.028;2022-09-09T12:58:53;19.70;1.00
2687;DHT22;1353;51.386;7.028;2022-09-09T13:01:22;20.20;1.00
2687;DHT22;1353;51.386;7.028;2022-09-09T13:03:49;19.60;1.00
2687;DHT22;1353;51.386;7.028;2022-09-09T13:06:23;20.20;1.00
2687;DHT22;1353;51.386;7.028;2022-09-09T13:08:51;19.90;1.00
2687;DHT22;1353;51.386;7.028;2022-09-09T13:11:21;20.80;1.00
2687;DHT22;1353;51.386;7.028;2022-09-09T13:13:51;21.00;1.00
2687;DHT22;1353;51.386;7.028;2022-09-09T13:16:20;20.80;1.00
2687;DHT22;1353;51.386;7.028;2022-09-09T13:18:48;20.70;1.00
2687;DHT22;1353;51.386;7.028;2022-09-09T13:21:16;20.60;1.00
2687;DHT22;1353;51.386;7.028;2022-09-09T13:23:49;20.00;1.00
2687;DHT22;1353;51.386;7.028;2022-09-09T13:26:22;19.40;1.00
2687;DHT22;1353;51.386;7.028;2022-09-09T13:28:50;19.10;1.00
2687;DHT22;1353;51.386;7.028;2022-09-09T13:31:23;19.10;1.00
2687;DHT22;1353;51.386;7.028;2022-09-09T13:33:52;18.70;1.00
2687;DHT22;1353;51.386;7.028;2022-09-09T13:36:28;17.40;99.90
2687;DHT22;1353;51.386;7.028;2022-09-09T13:38:58;15.40;99.90
2687;DHT22;1353;51.386;7.028;2022-09-09T13:41:28;15.60;99.90
2687;DHT22;1353;51.386;7.028;2022-09-09T13:43:57;15.70;99.90
2687;DHT22;1353;51.386;7.028;2022-09-09T13:46:27;16.00;99.90
2687;DHT22;1353;51.386;7.028;2022-09-09T13:48:56;16.10;99.90
2687;DHT22;1353;51.386;7.028;2022-09-09T13:51:30;16.00;99.90
2687;DHT22;1353;51.386;7.028;2022-09-09T13:54:00;16.00;99.90
2687;DHT22;1353;51.386;7.028;2022-09-09T13:56:26;16.00;99.90
2687;DHT22;1353;51.386;7.028;2022-09-09T13:58:53;16.10;99.90
2687;DHT22;1353;51.386;7.028;2022-09-09T14:01:20;16.00;99.90
2687;DHT22;1353;51.386;7.028;2022-09-09T14:03:47;16.20;99.90
2687;DHT22;1353;51.386;7.028;2022-09-09T14:06:14;16.50;99.90
2687;DHT22;1353;51.386;7.028;2022-09-09T14:08:40;16.70;99.90
2687;DHT22;1353;51.386;7.028;2022-09-09T14:11:12;16.60;99.90
2687;DHT22;1353;51.386;7.028;2022-09-09T14:13:39;17.10;99.90
2687;DHT22;1353;51.386;7.028;2022-09-09T14:16:06;17.10;99.90
2687;DHT22;1353;51.386;7.028;2022-09-09T14:18:33;17.20;99.90
2687;DHT22;1353;51.386;7.028;2022-09-09T14:20:59;17.30;99.90
2687;DHT22;1353;51.386;7.028;2022-09-09T14:23:27;17.30;99.90
2687;DHT22;1353;51.386;7.028;2022-09-09T14:25:54;17.10;99.90
2687;DHT22;1353;51.386;7.028;2022-09-09T14:28:23;17.00;99.90
2687;DHT22;1353;51.386;7.028;2022-09-09T14:30:51;17.00;99.90
2687;DHT22;1353;51.386;7.028;2022-09-09T14:33:17;17.50;99.90
2687;DHT22;1353;51.386;7.028;2022-09-09T14:35:44;17.50;99.90
2687;DHT22;1353;51.386;7.028;2022-09-09T14:38:11;17.50;99.90
2687;DHT22;1353;51.386;7.028;2022-09-09T14:40:38;18.10;99.90
2687;DHT22;1353;51.386;7.028;2022-09-09T14:43:05;17.50;99.90
2687;DHT22;1353;51.386;7.028;2022-09-09T14:45:35;17.90;99.90
2687;DHT22;1353;51.386;7.028;2022-09-09T14:48:03;17.40;99.90
2687;DHT22;1353;51.386;7.028;2022-09-09T14:50:30;17.30;99.90
2687;DHT22;1353;51.386;7.028;2022-09-09T14:52:57;17.10;99.90
2687;DHT22;1353;51.386;7.028;2022-09-09T14:55:24;17.10;99.90
2687;DHT22;1353;51.386;7.028;2022-09-09T14:57:54;17.10;99.90
2687;DHT22;1353;51.386;7.028;2022-09-09T15:00:20;16.40;99.90
2687;DHT22;1353;51.386;7.028;2022-09-09T15:02:51;16.20;99.90
2687;DHT22;1353;51.386;7.028;2022-09-09T15:05:18;15.10;99.90
2687;DHT22;1353;51.386;7.028;2022-09-09T15:07:45;14.50;99.90
2687;DHT22;1353;51.386;7.028;2022-09-09T15:10:12;14.40;99.90
2687;DHT22;1353;51.386;7.028;2022-09-09T15:12:39;14.20;99.90
2687;DHT22;1353;51.386;7.028;2022-09-09T15:15:08;14.10;99.90
2687;DHT22;1353;51.386;7.028;2022-09-09T15:17:35;14.10;99.90
2687;DHT22;1353;51.386;7.028;2022-09-09T15:20:04;14.10;99.90
2687;DHT22;1353;51.386;7.028;2022-09-09T15:22:32;14.10;99.90
2687;DHT22;1353;51.386;7.028;2022-09-09T15:24:59;14.20;99.90
2687;DHT22;1353;51.386;7.028;2022-09-09T15:27:26;14.30;99.90
2687;DHT22;1353;51.386;7.028;2022-09-09T15:29:53;14.20;99.90
2687;DHT22;1353;51.386;7.028;2022-09-09T15:32:19;14.30;99.90
2687;DHT22;1353;51.386;7.028;2022-09-09T15:34:46;14.20;99.90
2687;DHT22;1353;51.386;7.028;2022-09-09T15:37:18;14.20;99.90
2687;DHT22;1353;51.386;7.028;2022-09-09T15:39:44;14.00;99.90
2687;DHT22;1353;51.386;7.028;2022-09-09T15:42:11;13.70;99.90
2687;DHT22;1353;51.386;7.028;2022-09-09T15:44:39;13.60;99.90
2687;DHT22;1353;51.386;7.028;2022-09-09T15:47:07;13.60;99.90
2687;DHT22;1353;51.386;7.028;2022-09-09T15:49:37;13.50;99.90
2687;DHT22;1353;51.386;7.028;2022-09-09T15:52:04;13.50;99.90
2687;DHT22;1353;51.386;7.028;2022-09-09T15:54:34;13.70;99.90
2687;DHT22;1353;51.386;7.028;2022-09-09T15:57:03;14.00;99.90
2687;DHT22;1353;51.386;7.028;2022-09-09T15:59:31;14.00;99.90
2687;DHT22;1353;51.386;7.028;2022-09-09T16:01:59;14.10;99.90
2687;DHT22;1353;51.386;7.028;2022-09-09T16:04:27;14.20;99.90
2687;DHT22;1353;51.386;7.028;2022-09-09T16:06:56;14.30;99.90
2687;DHT22;1353;51.386;7.028;2022-09-09T16:09:24;14.40;99.90
2687;DHT22;1353;51.386;7.028;2022-09-09T16:11:54;14.50;99.90
2687;DHT22;1353;51.386;7.028;2022-09-09T16:14:22;14.40;99.90
2687;DHT22;1353;51.386;7.028;2022-09-09T16:16:50;14.80;99.90
2687;DHT22;1353;51.386;7.028;2022-09-09T16:19:17;14.70;99.90
2687;DHT22;1353;51.386;7.028;2022-09-09T16:21:46;14.70;99.90
2687;DHT22;1353;51.386;7.028;2022-09-09T16:24:15;15.10;99.90
2687;DHT22;1353;51.386;7.028;2022-09-09T16:26:43;15.20;99.90
2687;DHT22;1353;51.386;7.028;2022-09-09T16:29:13;15.00;99.90
2687;DHT22;1353;51.386;7.028;2022-09-09T16:31:41;14.60;99.90
2687;DHT22;1353;51.386;7.028;2022-09-09T16:34:08;14.60;99.90